Time;durP1;ratioP1;P1;durP2;ratioP2;P2;SDS_P1;SDS_P2;PMS_P1;PMS_P2;Temp;Humidity;BMP_temperature;BMP_pressure;BME280_temperature;BME280_humidity;BME280_pressure;Samples;Min_cycle;Max_cycle;Signal;HPM_P1;HPM_P2
2022/08/21 00:02:25;;;;;;;9.00;2.50;;;16.90;99.90;;;;;;5028060;28;20068;-75
2022/08/21 00:04:51;;;;;;;10.55;2.95;;;16.90;99.90;;;;;;5029125;28;20048;-75
2022/08/21 00:07:19;;;;;;;8.73;2.28;;;16.90;99.90;;;;;;5027785;28;20409;-75
2022/08/21 00:09:47;;;;;;;9.13;2.70;;;16.90;99.90;;;;;;5027857;28;20041;-75
2022/08/21 00:12:13;;;;;;;9.02;2.45;;;16.80;99.90;;;;;;5027955;28;20343;-74
2022/08/21 00:14:39;;;;;;;8.15;2.63;;;16.80;99.90;;;;;;5027793;28;20072;-74
2022/08/21 00:17:06;;;;;;;9.80;2.65;;;16.80;99.90;;;;;;5011222;28;20053;-75
2022/08/21 00:19:32;;;;;;;7.00;2.70;;;16.80;99.90;;;;;;5027838;28;20111;-75
2022/08/21 00:21:58;;;;;;;8.25;2.70;;;16.80;99.90;;;;;;5029088;28;20105;-75
2022/08/21 00:24:25;;;;;;;9.32;3.00;;;16.80;99.90;;;;;;5027791;28;20496;-74
2022/08/21 00:26:51;;;;;;;9.07;2.88;;;16.80;99.90;;;;;;5011204;28;20049;-74
2022/08/21 00:29:17;;;;;;;7.47;2.50;;;16.70;99.90;;;;;;5007379;28;20042;-75
2022/08/21 00:31:43;;;;;;;10.10;3.00;;;16.70;99.90;;;;;;5006752;28;20121;-75
2022/08/21 00:34:11;;;;;;;8.80;2.83;;;16.70;99.90;;;;;;5024672;28;20136;-75
2022/08/21 00:36:37;;;;;;;9.98;2.78;;;16.70;99.90;;;;;;5004427;28;20496;-74
2022/08/21 00:39:08;;;;;;;10.57;2.75;;;16.70;99.90;;;;;;4999664;28;20119;-75
2022/08/21 00:41:36;;;;;;;9.07;2.92;;;16.70;99.90;;;;;;5010912;28;20061;-75
2022/08/21 00:44:03;;;;;;;8.93;2.88;;;16.60;99.90;;;;;;5011700;28;20038;-75
2022/08/21 00:46:29;;;;;;;10.43;3.22;;;16.60;99.90;;;;;;5011481;28;20116;-75
2022/08/21 00:48:56;;;;;;;10.68;2.95;;;16.60;99.90;;;;;;5011511;28;20520;-75
2022/08/21 00:51:28;;;;;;;12.85;3.35;;;16.60;99.90;;;;;;5011461;28;20053;-74
2022/08/21 00:53:59;;;;;;;11.48;3.38;;;16.50;99.90;;;;;;5011405;28;20125;-74
2022/08/21 00:56:25;;;;;;;10.95;2.88;;;16.50;99.90;;;;;;5012481;28;20050;-76
2022/08/21 00:58:52;;;;;;;9.90;2.90;;;16.40;99.90;;;;;;5011220;28;20480;-75
2022/08/21 01:01:18;;;;;;;9.20;3.10;;;16.40;99.90;;;;;;5012475;28;20316;-75
2022/08/21 01:03:46;;;;;;;10.35;3.42;;;16.40;99.90;;;;;;5011104;28;20322;-75
2022/08/21 01:06:11;;;;;;;8.77;2.75;;;16.40;99.90;;;;;;4994720;28;20108;-75
2022/08/21 01:08:38;;;;;;;13.18;3.60;;;16.30;99.90;;;;;;5010973;28;20045;-74
2022/08/21 01:11:05;;;;;;;10.25;3.00;;;16.30;99.90;;;;;;5010809;28;20045;-75
2022/08/21 01:13:34;;;;;;;11.43;3.10;;;16.30;99.90;;;;;;4994563;28;20054;-75
2022/08/21 01:16:03;;;;;;;8.43;2.75;;;16.30;99.90;;;;;;5011092;28;20041;-75
2022/08/21 01:18:29;;;;;;;9.23;3.10;;;16.20;99.90;;;;;;5010976;28;20045;-75
2022/08/21 01:21:22;;;;;;;10.02;2.88;;;16.30;99.90;;;;;;5010548;28;20448;-76
2022/08/21 01:23:52;;;;;;;10.60;3.20;;;16.20;99.90;;;;;;5010948;28;20050;-75
2022/08/21 01:26:23;;;;;;;9.75;2.90;;;16.20;99.90;;;;;;4994275;28;20088;-75
2022/08/21 01:29:31;;;;;;;11.05;3.03;;;16.20;99.90;;;;;;4990055;28;20038;-74
2022/08/21 01:31:59;;;;;;;10.07;2.90;;;16.30;99.90;;;;;;4980825;28;20084;-75
2022/08/21 01:34:25;;;;;;;11.73;2.85;;;16.20;99.90;;;;;;5010463;28;20034;-75
2022/08/21 01:36:51;;;;;;;8.95;2.80;;;16.20;99.90;;;;;;4994326;28;20080;-75
2022/08/21 01:39:19;;;;;;;11.85;3.22;;;16.20;99.90;;;;;;5010509;28;20496;-74
2022/08/21 01:41:45;;;;;;;12.60;3.40;;;16.20;99.90;;;;;;5010244;28;20068;-76
2022/08/21 01:44:11;;;;;;;10.07;3.47;;;16.20;99.90;;;;;;5010277;28;20050;-75
2022/08/21 01:46:37;;;;;;;13.68;3.45;;;16.10;99.90;;;;;;4994250;28;20045;-75
2022/08/21 01:49:04;;;;;;;9.50;3.50;;;16.10;99.90;;;;;;5010289;28;20045;-75
2022/08/21 01:51:30;;;;;;;8.43;3.20;;;16.10;99.90;;;;;;5009302;28;20045;-75
2022/08/21 01:53:55;;;;;;;9.52;3.05;;;16.10;99.90;;;;;;5011105;28;20559;-75
2022/08/21 01:56:22;;;;;;;11.85;3.30;;;16.10;99.90;;;;;;4993967;28;20121;-76
2022/08/21 01:58:48;;;;;;;12.77;3.20;;;16.10;99.90;;;;;;5011105;28;20096;-75
2022/08/21 02:01:15;;;;;;;10.15;3.30;;;16.10;99.90;;;;;;5011148;28;20042;-75
2022/08/21 02:03:41;;;;;;;9.55;3.50;;;16.10;99.90;;;;;;5010934;28;20050;-75
2022/08/21 02:06:13;;;;;;;9.50;3.13;;;16.10;99.90;;;;;;5009625;28;20042;-75
2022/08/21 02:08:39;;;;;;;9.65;3.28;;;16.10;99.90;;;;;;5013659;28;20056;-75
2022/08/21 02:11:06;;;;;;;8.77;3.60;;;16.10;99.90;;;;;;4977541;28;20053;-75
2022/08/21 02:13:31;;;;;;;12.23;3.55;;;16.10;99.90;;;;;;4977433;28;20112;-75
2022/08/21 02:15:57;;;;;;;11.00;3.85;;;16.10;99.90;;;;;;5011103;28;20556;-74
2022/08/21 02:18:23;;;;;;;11.65;3.63;;;16.10;99.90;;;;;;5009812;28;20053;-76
2022/08/21 02:20:49;;;;;;;11.55;3.88;;;16.10;99.90;;;;;;5009422;28;20048;-75
2022/08/21 02:23:15;;;;;;;12.43;3.50;;;16.00;99.90;;;;;;4977476;28;20088;-74
2022/08/21 02:25:58;;;;;;;9.70;3.80;;;16.00;99.90;;;;;;5009472;28;20052;-75
2022/08/21 02:28:26;;;;;;;9.55;3.65;;;16.00;99.90;;;;;;5009700;28;20100;-75
2022/08/21 02:30:52;;;;;;;12.85;3.92;;;16.00;99.90;;;;;;5010784;28;20084;-75
2022/08/21 02:33:19;;;;;;;12.43;4.55;;;16.00;99.90;;;;;;5009314;28;20034;-75
2022/08/21 02:35:46;;;;;;;13.00;4.13;;;16.00;99.90;;;;;;5009381;28;20038;-75
2022/08/21 02:38:23;;;;;;;11.50;3.92;;;15.90;99.90;;;;;;5009117;28;20049;-75
2022/08/21 02:40:51;;;;;;;12.45;4.20;;;15.90;99.90;;;;;;5009045;28;20057;-75
2022/08/21 02:43:19;;;;;;;10.50;4.00;;;15.90;99.90;;;;;;4992851;28;20119;-75
2022/08/21 02:45:45;;;;;;;12.60;4.28;;;15.90;99.90;;;;;;4993134;28;20093;-74
2022/08/21 02:48:16;;;;;;;13.27;4.10;;;15.90;99.90;;;;;;5009543;28;20038;-75
2022/08/21 02:50:44;;;;;;;11.98;4.10;;;15.90;99.90;;;;;;5009656;28;20095;-75
2022/08/21 02:53:16;;;;;;;11.10;4.20;;;15.90;99.90;;;;;;5009029;28;20630;-75
2022/08/21 02:55:44;;;;;;;11.48;4.32;;;15.80;99.90;;;;;;5010612;28;20099;-75
2022/08/21 02:58:10;;;;;;;13.23;4.60;;;15.80;99.90;;;;;;5010684;28;20486;-75
2022/08/21 03:00:39;;;;;;;9.68;3.72;;;15.80;99.90;;;;;;5009025;28;20652;-76
2022/08/21 03:03:05;;;;;;;13.35;4.63;;;15.80;99.90;;;;;;4991899;28;20042;-76
2022/08/21 03:05:32;;;;;;;16.65;4.50;;;15.70;99.90;;;;;;5009055;28;20124;-76
2022/08/21 03:08:00;;;;;;;14.48;4.45;;;15.70;99.90;;;;;;5008977;28;20046;-75
2022/08/21 03:10:26;;;;;;;11.52;4.13;;;16.00;99.90;;;;;;5009077;28;20046;-75
2022/08/21 03:12:52;;;;;;;11.60;4.90;;;15.70;99.90;;;;;;5008994;28;20619;-75
2022/08/21 03:15:21;;;;;;;11.40;4.60;;;15.70;99.90;;;;;;4992378;28;20132;-74
2022/08/21 03:17:47;;;;;;;11.25;4.70;;;15.70;99.90;;;;;;5009819;28;20048;-75
2022/08/21 03:20:16;;;;;;;11.38;4.50;;;15.60;99.90;;;;;;5008680;28;20090;-75
2022/08/21 03:22:42;;;;;;;12.35;4.88;;;15.60;99.90;;;;;;5009969;28;20046;-75
2022/08/21 03:25:08;;;;;;;10.07;4.35;;;15.60;99.90;;;;;;5010037;28;20041;-75
2022/08/21 03:27:34;;;;;;;11.50;4.65;;;15.60;99.90;;;;;;4991855;28;20514;-75
2022/08/21 03:30:02;;;;;;;11.20;4.40;;;15.60;99.90;;;;;;5008361;28;20038;-75
2022/08/21 03:32:28;;;;;;;13.18;4.90;;;15.50;99.90;;;;;;5008592;28;20096;-75
2022/08/21 03:34:54;;;;;;;11.57;4.93;;;15.60;99.90;;;;;;4992466;28;20053;-74
2022/08/21 03:37:20;;;;;;;11.18;4.20;;;15.50;99.90;;;;;;4992246;28;20045;-75
2022/08/21 03:39:46;;;;;;;12.63;4.82;;;15.50;99.90;;;;;;5009733;28;20133;-74
2022/08/21 03:42:11;;;;;;;10.85;4.78;;;15.50;99.90;;;;;;4991863;28;20431;-75
2022/08/21 03:44:39;;;;;;;12.18;4.80;;;15.50;99.90;;;;;;5009607;28;20042;-75
2022/08/21 03:47:05;;;;;;;11.40;4.55;;;15.50;99.90;;;;;;5009821;28;20496;-75
2022/08/21 03:49:31;;;;;;;11.63;4.82;;;15.50;99.90;;;;;;4976052;28;20089;-75
2022/08/21 03:51:58;;;;;;;12.75;4.88;;;15.50;99.90;;;;;;4992180;28;20077;-75
2022/08/21 03:54:23;;;;;;;12.60;5.13;;;15.40;99.90;;;;;;5008515;28;20125;-75
2022/08/21 03:56:49;;;;;;;10.70;4.50;;;15.50;99.90;;;;;;4992010;28;20121;-76
2022/08/21 03:59:16;;;;;;;10.80;4.65;;;15.50;99.90;;;;;;5008449;28;20049;-75
2022/08/21 04:01:56;;;;;;;10.80;4.68;;;15.50;99.90;;;;;;5009538;28;20575;-74
2022/08/21 04:04:23;;;;;;;10.80;4.43;;;15.50;99.90;;;;;;5008193;28;20496;-75
2022/08/21 04:06:49;;;;;;;10.50;4.78;;;15.50;99.90;;;;;;5009202;28;20092;-74
2022/08/21 04:09:16;;;;;;;13.63;5.28;;;15.50;99.90;;;;;;5010079;28;20044;-75
2022/08/21 04:11:42;;;;;;;12.57;5.10;;;15.40;99.90;;;;;;5009298;28;20046;-75
2022/08/21 04:14:08;;;;;;;12.27;5.00;;;15.40;99.90;;;;;;5009851;28;20049;-75
2022/08/21 04:16:34;;;;;;;10.70;5.00;;;15.40;99.90;;;;;;5011824;28;20401;-75
2022/08/21 04:19:01;;;;;;;12.00;4.65;;;15.40;99.90;;;;;;5012200;28;20515;-76
2022/08/21 04:21:27;;;;;;;15.98;6.22;;;15.40;99.90;;;;;;5012142;28;20042;-75
2022/08/21 04:23:56;;;;;;;12.00;4.55;;;15.40;99.90;;;;;;5011730;28;20042;-75
2022/08/21 04:26:22;;;;;;;12.77;5.13;;;15.40;99.90;;;;;;4995307;28;20046;-75
2022/08/21 04:28:48;;;;;;;12.82;4.60;;;15.40;99.90;;;;;;5011925;28;20117;-75
2022/08/21 04:31:14;;;;;;;10.85;5.10;;;15.40;99.90;;;;;;4995486;28;20072;-75
2022/08/21 04:33:40;;;;;;;11.60;4.72;;;15.40;99.90;;;;;;5011460;28;20049;-76
2022/08/21 04:36:06;;;;;;;10.27;4.60;;;15.40;99.90;;;;;;5011397;28;20053;-75
2022/08/21 04:38:33;;;;;;;11.38;4.72;;;15.40;99.90;;;;;;5011905;28;20522;-75
2022/08/21 04:40:58;;;;;;;13.20;4.95;;;15.40;99.90;;;;;;5011493;28;20049;-76
2022/08/21 04:43:24;;;;;;;12.27;4.97;;;15.40;99.90;;;;;;4995323;28;20522;-75
2022/08/21 04:45:52;;;;;;;10.95;4.55;;;15.40;99.90;;;;;;4979116;28;20045;-75
2022/08/21 04:48:21;;;;;;;11.85;4.60;;;15.40;99.90;;;;;;4994891;28;20281;-75
2022/08/21 04:51:08;;;;;;;10.38;4.60;;;15.40;99.90;;;;;;5011339;28;20042;-75
2022/08/21 04:53:44;;;;;;;12.00;4.47;;;15.40;99.90;;;;;;4995047;28;20054;-76
2022/08/21 04:56:15;;;;;;;12.10;4.53;;;15.50;99.90;;;;;;5012811;28;20048;-75
2022/08/21 04:58:42;;;;;;;9.95;4.35;;;15.40;99.90;;;;;;5012672;28;20092;-75
2022/08/21 05:01:12;;;;;;;9.20;4.30;;;15.50;99.90;;;;;;4994873;28;20042;-75
2022/08/21 05:03:40;;;;;;;12.40;4.65;;;15.50;99.90;;;;;;5011177;28;20096;-75
2022/08/21 05:06:11;;;;;;;10.85;4.45;;;15.50;99.90;;;;;;4995454;28;20073;-75
2022/08/21 05:08:39;;;;;;;11.52;4.50;;;15.50;99.90;;;;;;5012154;28;20042;-75
2022/08/21 05:11:06;;;;;;;12.63;4.80;;;15.50;99.90;;;;;;5010952;28;20129;-76
2022/08/21 05:13:32;;;;;;;12.90;4.35;;;15.60;99.90;;;;;;4994556;28;20042;-76
2022/08/21 05:15:58;;;;;;;17.17;4.35;;;15.60;99.90;;;;;;5010904;28;20099;-75
2022/08/21 05:18:27;;;;;;;11.52;4.20;;;15.60;99.90;;;;;;5010718;28;20056;-76
2022/08/21 05:20:52;;;;;;;12.50;4.35;;;15.60;99.90;;;;;;5011114;28;20058;-75
2022/08/21 05:23:18;;;;;;;9.07;3.92;;;15.70;99.90;;;;;;5010562;28;20068;-74
2022/08/21 05:25:44;;;;;;;11.70;4.55;;;15.70;99.90;;;;;;5010746;28;20057;-75
2022/08/21 05:28:12;;;;;;;12.85;4.88;;;15.70;99.90;;;;;;5011937;28;20185;-75
2022/08/21 05:30:39;;;;;;;11.10;4.10;;;15.70;99.90;;;;;;5010825;28;20107;-75
2022/08/21 05:33:06;;;;;;;11.60;4.55;;;15.80;99.90;;;;;;4993887;28;20049;-74
2022/08/21 05:35:34;;;;;;;12.18;4.32;;;15.80;99.90;;;;;;5011942;28;20050;-75
2022/08/21 05:38:04;;;;;;;10.70;4.35;;;15.80;99.90;;;;;;4994751;28;20041;-74
2022/08/21 05:40:33;;;;;;;10.57;4.30;;;15.80;99.90;;;;;;4993966;28;20137;-76
2022/08/21 05:42:59;;;;;;;11.00;4.30;;;15.90;99.90;;;;;;4993997;28;20042;-75
2022/08/21 05:45:32;;;;;;;12.50;4.57;;;16.00;99.90;;;;;;5010313;28;20046;-75
2022/08/21 05:48:05;;;;;;;12.35;4.50;;;16.00;99.90;;;;;;5011813;28;20041;-75
2022/08/21 05:50:31;;;;;;;11.10;4.00;;;16.10;99.90;;;;;;5011446;28;20555;-75
2022/08/21 05:52:57;;;;;;;11.57;4.65;;;16.20;99.90;;;;;;4993675;28;20121;-75
2022/08/21 05:55:22;;;;;;;11.52;4.10;;;16.30;99.90;;;;;;5011770;28;20069;-74
2022/08/21 05:57:49;;;;;;;11.25;4.60;;;16.30;99.90;;;;;;5010193;28;20034;-75
2022/08/21 06:00:16;;;;;;;12.00;4.00;;;16.40;99.90;;;;;;5009994;28;20281;-75
2022/08/21 06:02:42;;;;;;;12.73;4.80;;;17.30;99.90;;;;;;4993820;28;20042;-75
2022/08/21 06:05:08;;;;;;;10.27;4.40;;;16.50;99.90;;;;;;4993816;28;20510;-75
2022/08/21 06:07:34;;;;;;;11.50;4.65;;;16.40;99.90;;;;;;5011879;28;20056;-75
2022/08/21 06:10:00;;;;;;;14.40;4.63;;;16.00;99.90;;;;;;4993824;28;20501;-75
2022/08/21 06:12:28;;;;;;;13.80;4.80;;;16.70;99.90;;;;;;5009555;28;20080;-75
2022/08/21 06:14:54;;;;;;;11.88;4.25;;;16.80;99.90;;;;;;5009785;28;20504;-75
2022/08/21 06:17:20;;;;;;;10.88;4.28;;;16.80;99.90;;;;;;4993476;28;20049;-75
2022/08/21 06:19:50;;;;;;;14.45;4.55;;;16.90;99.90;;;;;;5009887;28;20144;-74
2022/08/21 06:22:15;;;;;;;12.05;3.97;;;17.00;99.90;;;;;;4993072;28;20042;-75
2022/08/21 06:24:41;;;;;;;12.35;4.00;;;17.10;99.90;;;;;;4993732;28;20079;-75
2022/08/21 06:27:07;;;;;;;11.38;3.92;;;17.20;99.90;;;;;;4993341;28;20060;-74
2022/08/21 06:29:34;;;;;;;9.85;3.85;;;17.30;99.90;;;;;;5009359;28;20057;-76
2022/08/21 06:32:01;;;;;;;11.48;4.20;;;17.40;99.90;;;;;;5009463;28;20095;-75
2022/08/21 06:34:27;;;;;;;11.75;4.20;;;17.50;99.90;;;;;;5010649;28;20038;-76
2022/08/21 06:36:52;;;;;;;10.65;3.55;;;17.60;99.90;;;;;;5009958;28;20077;-75
2022/08/21 06:39:19;;;;;;;11.98;4.22;;;17.60;99.90;;;;;;5010233;28;20257;-76
2022/08/21 06:41:45;;;;;;;10.70;3.78;;;17.70;99.90;;;;;;4992714;28;20057;-75
2022/08/21 06:44:11;;;;;;;10.88;4.00;;;17.80;99.90;;;;;;5010449;28;20061;-75
2022/08/21 06:46:37;;;;;;;12.05;4.05;;;17.90;99.90;;;;;;4993085;28;20038;-74
2022/08/21 06:49:03;;;;;;;10.18;3.22;;;18.00;99.90;;;;;;4993161;28;20049;-75
2022/08/21 06:51:29;;;;;;;11.07;4.15;;;18.10;99.90;;;;;;5009219;28;20420;-75
2022/08/21 06:53:55;;;;;;;10.85;3.78;;;18.20;99.90;;;;;;5010171;28;20049;-75
2022/08/21 06:56:21;;;;;;;13.27;4.43;;;18.20;99.90;;;;;;5009291;28;20387;-74
2022/08/21 06:58:53;;;;;;;10.10;3.42;;;18.30;99.90;;;;;;5010653;28;20042;-75
2022/08/21 07:01:23;;;;;;;9.73;3.50;;;18.40;99.90;;;;;;5008967;28;20046;-76
2022/08/21 07:03:49;;;;;;;11.15;3.92;;;18.50;99.90;;;;;;4992679;28;20124;-75
2022/08/21 07:06:15;;;;;;;12.15;3.70;;;18.60;99.90;;;;;;5009130;28;20218;-75
2022/08/21 07:08:41;;;;;;;8.77;3.00;;;18.60;99.90;;;;;;4992273;28;20064;-75
2022/08/21 07:11:16;;;;;;;12.43;3.08;;;18.70;99.90;;;;;;4976970;28;20109;-75
2022/08/21 07:13:42;;;;;;;10.02;2.97;;;18.80;99.90;;;;;;4996929;28;20045;-75
2022/08/21 07:16:08;;;;;;;11.43;2.88;;;18.80;99.90;;;;;;5009021;28;20050;-75
2022/08/21 07:18:34;;;;;;;12.88;2.85;;;19.00;99.90;;;;;;5008422;28;20092;-76
2022/08/21 07:21:03;;;;;;;12.25;2.85;;;19.00;99.90;;;;;;4992674;28;20074;-75
2022/08/21 07:23:32;;;;;;;10.50;3.00;;;19.10;99.90;;;;;;5008480;28;20496;-75
2022/08/21 07:26:00;;;;;;;11.02;2.95;;;19.20;99.90;;;;;;5010318;28;20386;-75
2022/08/21 07:28:27;;;;;;;8.27;2.40;;;19.20;99.90;;;;;;4992068;28;20500;-75
2022/08/21 07:30:55;;;;;;;11.00;3.10;;;19.30;99.90;;;;;;5008786;28;20072;-74
2022/08/21 07:33:22;;;;;;;8.55;2.60;;;19.40;99.90;;;;;;5008440;28;20046;-75
2022/08/21 07:35:55;;;;;;;8.25;2.60;;;19.50;99.90;;;;;;5009931;28;20500;-75
2022/08/21 07:38:23;;;;;;;10.57;2.90;;;19.50;99.90;;;;;;5009959;28;20420;-76
2022/08/21 07:40:50;;;;;;;9.27;2.50;;;19.60;99.90;;;;;;5008473;28;20133;-75
2022/08/21 07:43:17;;;;;;;13.20;2.60;;;19.60;99.90;;;;;;4976218;28;20050;-75
2022/08/21 07:45:44;;;;;;;10.13;2.92;;;19.70;99.90;;;;;;5008329;28;20493;-75
2022/08/21 07:48:10;;;;;;;10.70;2.90;;;19.80;99.90;;;;;;5008128;28;20042;-74
2022/08/21 07:50:36;;;;;;;11.15;3.00;;;19.80;99.90;;;;;;4978162;28;20054;-75
2022/08/21 07:53:04;;;;;;;10.38;2.70;;;19.90;99.90;;;;;;4996544;28;20132;-76
2022/08/21 07:55:33;;;;;;;7.13;2.20;;;19.90;99.90;;;;;;5013698;28;20548;-74
2022/08/21 07:57:59;;;;;;;11.45;2.88;;;20.80;99.90;;;;;;5013542;28;20038;-75
2022/08/21 08:00:28;;;;;;;10.52;2.60;;;20.10;99.90;;;;;;5012209;28;20560;-76
2022/08/21 08:02:58;;;;;;;10.57;2.60;;;20.10;99.90;;;;;;5012120;28;20050;-75
2022/08/21 08:05:27;;;;;;;9.05;2.47;;;20.10;99.90;;;;;;5012742;28;20100;-75
2022/08/21 08:07:53;;;;;;;13.50;2.80;;;20.20;99.90;;;;;;5020521;28;20053;-74
2022/08/21 08:10:20;;;;;;;11.27;3.20;;;19.80;99.90;;;;;;4995892;28;20050;-75
2022/08/21 08:12:46;;;;;;;10.32;2.30;;;20.30;99.90;;;;;;5012319;28;20060;-75
2022/08/21 08:15:17;;;;;;;10.57;2.97;;;20.40;99.90;;;;;;5012115;28;20136;-75
2022/08/21 08:17:43;;;;;;;9.85;3.05;;;20.50;99.90;;;;;;5011916;28;20080;-75
2022/08/21 08:20:10;;;;;;;12.88;2.72;;;20.50;99.90;;;;;;5012092;28;20042;-76
2022/08/21 08:22:38;;;;;;;8.82;2.38;;;20.60;99.90;;;;;;5012301;28;20046;-76
2022/08/21 08:25:06;;;;;;;11.35;2.80;;;20.60;99.90;;;;;;4995997;28;20069;-76
2022/08/21 08:27:32;;;;;;;10.60;2.55;;;20.70;99.90;;;;;;5013273;28;20038;-75
2022/08/21 08:29:58;;;;;;;11.15;2.53;;;20.70;99.90;;;;;;4979385;28;20193;-75
2022/08/21 08:32:26;;;;;;;9.38;2.20;;;20.80;99.90;;;;;;5011582;28;20045;-76
2022/08/21 08:34:55;;;;;;;12.32;2.42;;;20.80;99.90;;;;;;4995439;28;20589;-78
2022/08/21 08:37:21;;;;;;;14.32;2.53;;;20.90;99.90;;;;;;5011500;28;20053;-76
2022/08/21 08:39:48;;;;;;;10.80;2.50;;;21.00;99.90;;;;;;5011679;28;20084;-76
2022/08/21 08:42:27;;;;;;;7.70;1.90;;;21.00;99.90;;;;;;5012773;28;20038;-75
2022/08/21 08:45:02;;;;;;;8.85;2.33;;;21.10;99.90;;;;;;5011850;28;20124;-75
2022/08/21 08:47:29;;;;;;;9.45;2.45;;;21.20;99.90;;;;;;5012626;28;20038;-75
2022/08/21 08:50:04;;;;;;;11.02;2.55;;;21.20;99.90;;;;;;5011808;28;20050;-76
2022/08/21 08:52:34;;;;;;;8.18;2.22;;;21.30;99.90;;;;;;5012847;28;20129;-75
2022/08/21 08:55:05;;;;;;;7.45;2.00;;;21.40;99.90;;;;;;4995187;28;20045;-75
2022/08/21 08:57:33;;;;;;;9.18;2.00;;;21.50;99.90;;;;;;5011134;28;20048;-75
2022/08/21 09:00:02;;;;;;;8.45;2.20;;;21.60;99.90;;;;;;5011505;28;20120;-76
2022/08/21 09:02:28;;;;;;;9.48;2.33;;;21.60;99.90;;;;;;5010392;28;20107;-76
2022/08/21 09:04:55;;;;;;;7.70;2.05;;;21.60;99.90;;;;;;5011275;28;20621;-75
2022/08/21 09:07:49;;;;;;;9.05;2.38;;;21.60;99.90;;;;;;5012004;28;20259;-75
2022/08/21 09:10:34;;;;;;;9.18;2.20;;;21.70;99.90;;;;;;5012157;28;20034;-76
2022/08/21 09:13:20;;;;;;;10.98;3.08;;;21.80;99.90;;;;;;5011037;28;20088;-75
2022/08/21 09:15:46;;;;;;;13.00;2.60;;;21.90;99.90;;;;;;5012342;28;20436;-76
2022/08/21 09:18:35;;;;;;;12.15;2.70;;;21.90;99.90;;;;;;4994653;28;20046;-76
2022/08/21 09:21:20;;;;;;;10.32;2.33;;;22.00;99.90;;;;;;4993673;28;20132;-76
2022/08/21 09:23:59;;;;;;;12.50;2.67;;;22.00;99.90;;;;;;5010610;28;20073;-76
2022/08/21 09:26:29;;;;;;;8.52;2.50;;;22.20;99.90;;;;;;5010896;28;20045;-75
2022/08/21 09:28:58;;;;;;;10.95;2.80;;;22.30;99.90;;;;;;5010252;28;20077;-75
2022/08/21 09:31:31;;;;;;;10.50;2.85;;;22.30;99.90;;;;;;5010790;28;20033;-75
2022/08/21 09:33:59;;;;;;;8.15;2.30;;;22.40;99.90;;;;;;5011864;28;20042;-76
2022/08/21 09:36:33;;;;;;;10.48;2.75;;;22.50;99.90;;;;;;5012303;28;20049;-75
2022/08/21 09:38:59;;;;;;;11.57;2.65;;;22.50;99.90;;;;;;4994593;28;20046;-75
2022/08/21 09:41:31;;;;;;;9.23;2.35;;;22.60;99.90;;;;;;4993873;28;20050;-75
2022/08/21 09:43:58;;;;;;;10.98;2.80;;;22.70;99.90;;;;;;5011699;28;20054;-74
2022/08/21 09:46:26;;;;;;;10.05;2.78;;;22.90;99.90;;;;;;5010723;28;20041;-75
2022/08/21 09:48:58;;;;;;;10.63;2.63;;;22.80;99.90;;;;;;5010305;28;20461;-75
2022/08/21 09:51:27;;;;;;;10.65;2.58;;;22.80;99.90;;;;;;5010196;28;20072;-75
2022/08/21 09:53:53;;;;;;;11.48;2.50;;;22.90;99.90;;;;;;5010310;28;20501;-76
2022/08/21 09:59:36;;;;;;;12.38;2.75;;;22.90;99.90;;;;;;5010656;28;20072;-75
2022/08/21 10:02:18;;;;;;;10.02;2.30;;;22.90;99.90;;;;;;5011165;28;20045;-75
2022/08/21 10:04:51;;;;;;;9.13;2.43;;;22.90;99.90;;;;;;4993917;28;20046;-75
2022/08/21 10:07:21;;;;;;;10.55;2.55;;;23.00;99.90;;;;;;5011400;28;20037;-76
2022/08/21 10:10:09;;;;;;;10.05;2.53;;;23.10;99.90;;;;;;4993537;28;20054;-76
2022/08/21 10:13:01;;;;;;;11.25;2.42;;;23.10;99.90;;;;;;5009003;28;20096;-76
2022/08/21 10:16:03;;;;;;;8.88;2.30;;;23.30;99.90;;;;;;4993600;28;20057;-75
2022/08/21 10:18:50;;;;;;;9.48;2.20;;;23.50;99.90;;;;;;4993543;28;20057;-75
2022/08/21 10:21:45;;;;;;;10.02;2.20;;;23.50;99.90;;;;;;5010043;28;20060;-76
2022/08/21 10:24:30;;;;;;;9.68;2.58;;;23.60;99.90;;;;;;5009770;28;20488;-75
2022/08/21 10:27:19;;;;;;;11.43;2.65;;;23.60;99.90;;;;;;5009490;28;20563;-75
2022/08/21 10:30:01;;;;;;;9.98;2.50;;;23.80;99.90;;;;;;4994541;28;20453;-75
2022/08/21 10:32:48;;;;;;;10.43;2.25;;;23.30;99.90;;;;;;4993181;28;20480;-76
2022/08/21 10:35:30;;;;;;;12.68;2.55;;;23.90;99.90;;;;;;5010882;28;20053;-76
2022/08/21 10:37:55;;;;;;;7.80;2.28;;;24.10;99.90;;;;;;5010711;28;20038;-76
2022/08/21 10:41:06;;;;;;;10.45;2.22;;;24.20;99.90;;;;;;5009373;28;20119;-77
2022/08/21 10:44:08;;;;;;;10.40;2.10;;;24.30;99.90;;;;;;5009153;28;20519;-75
2022/08/21 10:46:49;;;;;;;10.30;2.20;;;24.40;99.90;;;;;;4992802;28;20076;-76
2022/08/21 10:49:25;;;;;;;12.48;2.40;;;24.10;99.90;;;;;;5011164;28;20033;-75
2022/08/21 10:52:01;;;;;;;11.70;2.70;;;23.90;99.90;;;;;;5009801;28;20068;-75
2022/08/21 10:54:45;;;;;;;8.27;2.13;;;23.60;99.90;;;;;;5009373;28;20042;-76
2022/08/21 10:57:46;;;;;;;9.20;2.20;;;23.40;99.90;;;;;;5009433;28;20042;-75
2022/08/21 11:00:16;;;;;;;8.90;2.25;;;23.00;99.90;;;;;;4985534;28;20058;-76
2022/08/21 11:03:10;;;;;;;8.57;2.30;;;22.90;99.90;;;;;;4992718;28;20060;-75
2022/08/21 11:06:02;;;;;;;8.07;2.15;;;22.70;99.90;;;;;;5008949;28;20510;-75
2022/08/21 11:08:45;;;;;;;9.90;2.15;;;22.50;99.90;;;;;;5008243;28;20046;-75
2022/08/21 11:11:26;;;;;;;9.68;2.40;;;22.40;99.90;;;;;;5009005;28;20038;-75
2022/08/21 11:14:02;;;;;;;8.88;2.08;;;22.30;99.90;;;;;;4999117;28;20514;-75
2022/08/21 11:16:41;;;;;;;9.80;2.22;;;22.20;99.90;;;;;;4992796;28;20117;-75
2022/08/21 11:19:28;;;;;;;9.68;2.40;;;22.20;99.90;;;;;;4992568;28;20125;-76
2022/08/21 11:22:19;;;;;;;7.10;2.00;;;22.20;99.90;;;;;;4992531;28;20410;-76
2022/08/21 11:25:23;;;;;;;11.20;2.33;;;22.20;99.90;;;;;;4984707;28;20072;-75
2022/08/21 11:27:55;;;;;;;10.63;2.40;;;22.20;99.90;;;;;;4992287;28;20046;-75
2022/08/21 11:30:23;;;;;;;9.05;2.35;;;22.20;99.90;;;;;;5009030;28;20042;-75
2022/08/21 11:33:13;;;;;;;9.75;2.22;;;22.20;99.90;;;;;;5008528;28;20045;-75
2022/08/21 11:36:03;;;;;;;9.50;2.20;;;22.20;99.90;;;;;;5009790;28;20041;-75
2022/08/21 11:38:47;;;;;;;7.95;2.05;;;22.20;99.90;;;;;;5025345;28;20045;-75
2022/08/21 11:41:30;;;;;;;9.00;2.30;;;22.10;99.90;;;;;;5009754;28;20058;-76
2022/08/21 11:44:21;;;;;;;10.43;2.10;;;21.30;99.90;;;;;;5024759;28;20057;-75
2022/08/21 11:47:21;;;;;;;8.50;2.60;;;22.10;99.90;;;;;;5009612;28;20053;-75
2022/08/21 11:49:51;;;;;;;8.07;2.10;;;22.10;99.90;;;;;;4991867;28;20057;-74
2022/08/21 11:52:53;;;;;;;9.18;2.17;;;22.10;99.90;;;;;;5009827;28;20050;-76
2022/08/21 11:55:34;;;;;;;8.80;2.10;;;22.10;99.90;;;;;;5018036;28;20050;-75
2022/08/21 11:58:34;;;;;;;9.40;2.35;;;22.10;99.90;;;;;;5008781;28;20037;-75
2022/08/21 12:01:06;;;;;;;11.40;2.58;;;22.00;99.90;;;;;;5024494;28;20500;-75
2022/08/21 12:03:52;;;;;;;7.05;2.17;;;22.00;99.90;;;;;;4991770;28;20096;-76
2022/08/21 12:06:30;;;;;;;8.60;2.17;;;22.10;99.90;;;;;;5007878;28;20046;-76
2022/08/21 12:09:03;;;;;;;9.75;2.50;;;22.20;99.90;;;;;;5017173;28;20092;-76
2022/08/21 12:11:45;;;;;;;10.93;2.28;;;22.30;99.90;;;;;;5008368;28;20137;-75
2022/08/21 12:14:10;;;;;;;7.13;2.25;;;22.40;99.90;;;;;;5009768;28;20081;-75
2022/08/21 12:16:39;;;;;;;10.15;2.30;;;22.60;99.90;;;;;;5009583;28;20085;-76
2022/08/21 12:19:12;;;;;;;8.43;2.28;;;22.70;99.90;;;;;;5008555;28;20124;-75
2022/08/21 12:22:04;;;;;;;9.68;2.22;;;22.70;99.90;;;;;;5008343;28;20400;-75
2022/08/21 12:24:36;;;;;;;9.40;2.30;;;22.80;99.90;;;;;;5008262;28;20105;-75
2022/08/21 12:27:23;;;;;;;11.05;2.90;;;23.10;99.90;;;;;;5009600;28;20273;-76
2022/08/21 12:29:55;;;;;;;11.27;2.63;;;23.40;99.90;;;;;;5008406;28;20103;-75
2022/08/21 12:32:28;;;;;;;10.07;2.85;;;23.60;99.90;;;;;;5007948;28;20050;-76
2022/08/21 12:35:02;;;;;;;10.40;2.47;;;23.70;99.90;;;;;;4992313;28;20057;-75
2022/08/21 12:38:03;;;;;;;11.13;2.80;;;23.70;99.90;;;;;;5011344;28;20380;-75
2022/08/21 12:40:54;;;;;;;10.80;2.60;;;23.80;99.90;;;;;;4994838;28;20411;-76
2022/08/21 12:43:44;;;;;;;9.63;2.10;;;24.20;99.90;;;;;;5006648;28;20507;-75
2022/08/21 12:46:24;;;;;;;9.38;2.20;;;24.40;99.90;;;;;;5012089;28;20046;-76
2022/08/21 12:48:56;;;;;;;8.50;2.38;;;24.50;99.90;;;;;;5011238;28;20050;-75
2022/08/21 12:51:43;;;;;;;7.82;2.10;;;24.40;99.90;;;;;;5011692;28;20120;-76
2022/08/21 12:54:09;;;;;;;9.48;2.25;;;24.30;99.90;;;;;;5011427;28;20511;-75
2022/08/21 12:56:35;;;;;;;8.85;2.38;;;24.30;99.90;;;;;;4995077;28;20326;-75
2022/08/21 12:59:06;;;;;;;9.05;2.38;;;24.30;99.90;;;;;;4994987;28;20548;-75
2022/08/21 13:01:45;;;;;;;9.75;2.72;;;24.10;99.90;;;;;;5011241;28;20045;-75
2022/08/21 13:04:16;;;;;;;7.80;2.28;;;23.90;99.90;;;;;;5011206;28;20050;-75
2022/08/21 13:06:51;;;;;;;7.72;2.00;;;23.80;99.90;;;;;;5011031;28;20042;-75